Time;durP1;ratioP1;P1;durP2;ratioP2;P2;SDS_P1;SDS_P2;PMS_P1;PMS_P2;Temp;Humidity;BMP_temperature;BMP_pressure;BME280_temperature;BME280_humidity;BME280_pressure;Samples;Min_cycle;Max_cycle;Signal;HPM_P1;HPM_P2
2022/02/01 00:01:57;;;;;;;;;;;1.50;99.90;;;;;;4982787;28;19932;-88
2022/02/01 00:04:40;;;;;;;;;;;1.40;99.90;;;;;;4976219;28;19928;-88
2022/02/01 00:10:18;;;;;;;;;;;1.40;99.90;;;;;;4971235;22;19933;-80
2022/02/01 00:13:04;;;;;;;;;;;1.40;99.90;;;;;;4974202;28;19918;-79
2022/02/01 00:37:24;;;;;;;;;;;1.20;99.90;;;;;;4994950;28;20603;-79
2022/02/01 00:39:56;;;;;;;;;;;1.20;99.90;;;;;;4992929;28;20368;-80
2022/02/01 00:42:21;;;;;;;;;;;1.20;99.90;;;;;;4989439;28;19921;-80
2022/02/01 00:44:47;;;;;;;;;;;1.20;99.90;;;;;;4975955;28;19914;-79
2022/02/01 00:47:12;;;;;;;;;;;1.30;99.90;;;;;;4993022;28;19914;-79
2022/02/01 00:49:38;;;;;;;;;;;1.20;99.90;;;;;;4994265;28;19918;-79
2022/02/01 00:52:05;;;;;;;;;;;1.20;99.90;;;;;;4994689;28;20424;-79
2022/02/01 00:54:30;;;;;;;;;;;1.20;99.90;;;;;;4992363;28;19917;-80
2022/02/01 00:56:56;;;;;;;;;;;1.20;99.90;;;;;;4976110;28;19940;-79
2022/02/01 00:59:22;;;;;;;;;;;1.20;99.90;;;;;;4992509;28;20279;-79
2022/02/01 01:01:47;;;;;;;;;;;1.20;99.90;;;;;;4993421;28;20013;-80
2022/02/01 01:04:13;;;;;;;;;;;1.20;99.90;;;;;;4992945;28;19914;-79
2022/02/01 01:06:38;;;;;;;;;;;1.20;99.90;;;;;;4976764;28;19929;-80
2022/02/01 01:09:04;;;;;;;;;;;1.20;99.90;;;;;;4992260;28;19914;-79
2022/02/01 01:11:30;;;;;;;;;;;1.20;99.90;;;;;;4974186;28;19925;-80
2022/02/01 01:17:08;;;;;;;;;;;1.20;99.90;;;;;;4988913;28;19918;-79
2022/02/01 01:43:58;;;;;;;;;;;1.20;99.90;;;;;;4967632;28;19968;-80
2022/02/01 01:54:19;;;;;;;;;;;1.20;99.90;;;;;;4986827;28;19914;-79
2022/02/01 01:56:45;;;;;;;;;;;1.20;99.90;;;;;;4992797;28;19941;-79
2022/02/01 01:59:11;;;;;;;;;;;1.20;99.90;;;;;;4989535;28;19961;-79
2022/02/01 02:01:37;;;;;;;;;;;1.20;99.90;;;;;;4989995;28;19921;-80
2022/02/01 02:04:03;;;;;;;;;;;1.20;99.90;;;;;;4975069;28;19922;-80
2022/02/01 02:06:32;;;;;;;;;;;1.20;99.90;;;;;;4991467;28;19960;-80
2022/02/01 02:09:00;;;;;;;;;;;1.20;99.90;;;;;;4991286;28;19914;-79
2022/02/01 02:11:42;;;;;;;;;;;1.20;99.90;;;;;;4991608;28;19953;-79
2022/02/01 02:16:47;;;;;;;;;;;1.20;99.90;;;;;;4975562;28;20385;-80
2022/02/01 02:19:13;;;;;;;;;;;1.20;99.90;;;;;;4986450;28;20017;-80
2022/02/01 02:21:40;;;;;;;;;;;1.20;99.90;;;;;;4992022;28;20376;-80
2022/02/01 02:24:06;;;;;;;;;;;1.30;99.90;;;;;;4975079;28;19917;-79
2022/02/01 02:26:33;;;;;;;;;;;1.20;99.90;;;;;;4999003;28;19917;-79
2022/02/01 02:28:59;;;;;;;;;;;1.20;99.90;;;;;;4996034;28;19918;-79
2022/02/01 02:31:26;;;;;;;;;;;1.30;99.90;;;;;;4992938;28;20004;-79
2022/02/01 02:34:06;;;;;;;;;;;1.20;99.90;;;;;;5006117;28;19964;-79
2022/02/01 02:36:35;;;;;;;;;;;1.20;99.90;;;;;;4995050;28;19917;-80
2022/02/01 02:39:09;;;;;;;;;;;1.20;99.90;;;;;;4982875;28;19941;-80
2022/02/01 02:41:37;;;;;;;;;;;1.20;99.90;;;;;;4982419;28;19918;-80
2022/02/01 02:46:52;;;;;;;;;;;1.20;99.90;;;;;;4972936;28;19915;-80
2022/02/01 02:49:20;;;;;;;;;;;1.20;99.90;;;;;;4983064;28;19914;-80
2022/02/01 02:51:45;;;;;;;;;;;1.20;99.90;;;;;;4985898;28;19961;-80
2022/02/01 02:54:18;;;;;;;;;;;1.10;99.90;;;;;;4974734;28;20390;-80
2022/02/01 02:56:54;;;;;;;;;;;1.10;99.90;;;;;;4955484;28;19914;-80
2022/02/01 02:59:23;;;;;;;;;;;1.10;99.90;;;;;;4978004;28;19961;-81
2022/02/01 03:01:49;;;;;;;;;;;1.10;99.90;;;;;;4992634;28;20327;-80
2022/02/01 03:04:19;;;;;;;;;;;1.10;99.90;;;;;;4990765;28;19914;-79
2022/02/01 03:06:45;;;;;;;;;;;1.00;99.90;;;;;;4993533;28;19940;-80
2022/02/01 03:09:11;;;;;;;;;;;1.10;99.90;;;;;;5000778;28;19910;-80
2022/02/01 03:11:37;;;;;;;;;;;1.10;99.90;;;;;;4989240;28;20400;-80
2022/02/01 03:14:04;;;;;;;;;;;1.10;99.90;;;;;;4979931;28;19918;-80
2022/02/01 03:16:56;;;;;;;;;;;1.00;99.90;;;;;;4991324;28;20295;-79
2022/02/01 03:22:05;;;;;;;;;;;1.00;99.90;;;;;;4989027;28;20298;-80
2022/02/01 03:24:31;;;;;;;;;;;0.90;99.90;;;;;;4991519;28;19928;-80
2022/02/01 03:26:57;;;;;;;;;;;0.90;99.90;;;;;;4974226;28;19918;-79
2022/02/01 03:29:22;;;;;;;;;;;0.90;99.90;;;;;;4974119;28;19918;-80
2022/02/01 03:31:48;;;;;;;;;;;0.90;99.90;;;;;;4983295;28;19918;-80
2022/02/01 03:34:14;;;;;;;;;;;0.90;99.90;;;;;;4990669;28;19925;-80
2022/02/01 03:36:40;;;;;;;;;;;0.90;99.90;;;;;;4989808;28;19914;-80
2022/02/01 03:39:05;;;;;;;;;;;0.90;99.90;;;;;;4987663;28;20041;-80
2022/02/01 03:41:31;;;;;;;;;;;0.90;99.90;;;;;;4994636;28;20379;-80
2022/02/01 03:43:57;;;;;;;;;;;0.90;99.90;;;;;;4980499;28;19922;-80
2022/02/01 03:46:22;;;;;;;;;;;0.90;99.90;;;;;;4996656;28;19984;-80
2022/02/01 03:48:48;;;;;;;;;;;1.00;99.90;;;;;;4978105;28;19918;-80
2022/02/01 03:51:14;;;;;;;;;;;1.00;99.90;;;;;;4995921;28;19918;-80
2022/02/01 03:53:40;;;;;;;;;;;1.00;99.90;;;;;;4989484;28;19921;-80
2022/02/01 03:56:06;;;;;;;;;;;1.00;99.90;;;;;;4974485;28;19918;-80
2022/02/01 03:58:31;;;;;;;;;;;1.00;99.90;;;;;;4993338;28;19921;-80
2022/02/01 04:00:57;;;;;;;;;;;1.00;99.90;;;;;;4994218;28;19913;-79
2022/02/01 04:03:23;;;;;;;;;;;1.00;99.90;;;;;;4993411;28;20388;-80
2022/02/01 04:05:48;;;;;;;;;;;1.00;99.90;;;;;;4994705;28;19969;-79
2022/02/01 04:08:16;;;;;;;;;;;1.00;99.90;;;;;;4978024;28;19925;-80
2022/02/01 04:10:43;;;;;;;;;;;1.00;99.90;;;;;;4974957;28;19922;-80
2022/02/01 04:13:08;;;;;;;;;;;1.00;99.90;;;;;;4992073;28;20288;-80
2022/02/01 04:15:34;;;;;;;;;;;1.00;99.90;;;;;;4961305;28;20279;-80
2022/02/01 04:18:00;;;;;;;;;;;0.90;99.90;;;;;;4992218;28;20013;-80
2022/02/01 04:20:26;;;;;;;;;;;0.90;99.90;;;;;;4998054;28;19918;-80
2022/02/01 04:22:52;;;;;;;;;;;0.90;99.90;;;;;;4991920;28;19926;-80
2022/02/01 04:25:18;;;;;;;;;;;0.90;99.90;;;;;;4994924;28;20004;-80
2022/02/01 04:27:44;;;;;;;;;;;0.90;99.90;;;;;;5007258;28;19937;-80
2022/02/01 04:30:14;;;;;;;;;;;0.90;99.90;;;;;;5006471;28;20364;-80
2022/02/01 04:32:41;;;;;;;;;;;0.90;99.90;;;;;;5007069;28;19917;-80
2022/02/01 04:35:08;;;;;;;;;;;0.90;99.90;;;;;;5013161;28;19914;-80
2022/02/01 04:37:34;;;;;;;;;;;0.90;99.90;;;;;;4979809;28;20293;-80
2022/02/01 04:39:59;;;;;;;;;;;0.90;99.90;;;;;;4986755;28;19918;-80
2022/02/01 04:42:28;;;;;;;;;;;0.90;99.90;;;;;;4993819;28;19972;-80
2022/02/01 04:44:53;;;;;;;;;;;0.90;99.90;;;;;;4992355;28;20396;-80
2022/02/01 04:47:19;;;;;;;;;;;0.90;99.90;;;;;;4992681;28;19921;-80
2022/02/01 04:49:45;;;;;;;;;;;1.00;99.90;;;;;;4982392;28;19922;-80
2022/02/01 04:52:11;;;;;;;;;;;1.00;99.90;;;;;;4991481;28;19921;-80
2022/02/01 04:54:37;;;;;;;;;;;1.00;99.90;;;;;;4972535;28;19935;-80
2022/02/01 04:57:03;;;;;;;;;;;1.00;99.90;;;;;;4988662;28;19925;-79
2022/02/01 04:59:28;;;;;;;;;;;1.00;99.90;;;;;;4994011;28;19913;-80
2022/02/01 05:01:54;;;;;;;;;;;1.00;99.90;;;;;;4976421;28;19922;-80
2022/02/01 05:04:19;;;;;;;;;;;1.00;99.90;;;;;;4992592;28;19918;-80
2022/02/01 05:06:48;;;;;;;;;;;1.00;99.90;;;;;;4992485;28;20386;-80
2022/02/01 05:09:14;;;;;;;;;;;1.00;99.90;;;;;;4993886;28;19921;-80
2022/02/01 05:11:39;;;;;;;;;;;1.00;99.90;;;;;;4991086;28;19921;-80
2022/02/01 05:19:09;;;;;;;;;;;1.00;99.90;;;;;;4976391;28;19918;-80
2022/02/01 05:21:37;;;;;;;;;;;1.00;99.90;;;;;;4993029;28;19917;-80
2022/02/01 05:24:03;;;;;;;;;;;1.00;99.90;;;;;;4975097;28;20017;-80
2022/02/01 05:26:30;;;;;;;;;;;1.00;99.90;;;;;;4973069;28;20110;-80
2022/02/01 05:28:56;;;;;;;;;;;1.00;99.90;;;;;;4981807;28;19925;-79
2022/02/01 05:31:23;;;;;;;;;;;1.00;99.90;;;;;;4992708;28;19917;-80
2022/02/01 05:33:49;;;;;;;;;;;1.00;99.90;;;;;;4992937;28;19914;-80
2022/02/01 05:36:15;;;;;;;;;;;1.00;99.90;;;;;;4991661;28;20335;-80
2022/02/01 05:38:40;;;;;;;;;;;1.00;99.90;;;;;;4992248;28;19924;-80
2022/02/01 05:41:08;;;;;;;;;;;1.00;99.90;;;;;;4993832;28;19914;-80
2022/02/01 05:43:36;;;;;;;;;;;1.00;99.90;;;;;;4993330;28;19968;-80
2022/02/01 05:46:01;;;;;;;;;;;1.00;99.90;;;;;;4993361;28;19918;-80
2022/02/01 05:48:27;;;;;;;;;;;1.00;99.90;;;;;;4988701;28;20057;-80
2022/02/01 05:50:54;;;;;;;;;;;1.00;99.90;;;;;;4989323;28;19921;-80
2022/02/01 05:53:19;;;;;;;;;;;1.00;99.90;;;;;;4991514;28;19914;-80
2022/02/01 05:55:47;;;;;;;;;;;1.00;99.90;;;;;;4991583;28;19957;-80
2022/02/01 05:58:13;;;;;;;;;;;1.00;99.90;;;;;;4992174;28;19921;-79
2022/02/01 06:00:39;;;;;;;;;;;1.00;99.90;;;;;;4990505;28;19918;-80
2022/02/01 06:03:05;;;;;;;;;;;1.00;99.90;;;;;;4991190;28;19925;-79
2022/02/01 06:05:31;;;;;;;;;;;1.00;99.90;;;;;;4992108;28;21362;-80
2022/02/01 06:07:56;;;;;;;;;;;1.00;99.90;;;;;;5000489;28;19921;-80
2022/02/01 06:10:22;;;;;;;;;;;1.00;99.90;;;;;;5002935;28;20319;-79
2022/02/01 06:12:48;;;;;;;;;;;1.00;99.90;;;;;;4993532;28;19992;-80
2022/02/01 06:15:15;;;;;;;;;;;1.00;99.90;;;;;;4997180;28;19921;-80
2022/02/01 06:17:41;;;;;;;;;;;0.90;99.90;;;;;;5006244;28;19913;-80
2022/02/01 06:20:08;;;;;;;;;;;0.90;99.90;;;;;;4991122;28;20009;-79
2022/02/01 06:22:33;;;;;;;;;;;0.90;99.90;;;;;;4991440;28;19917;-80
2022/02/01 06:25:00;;;;;;;;;;;0.90;99.90;;;;;;4982878;28;19918;-80
2022/02/01 06:27:26;;;;;;;;;;;0.90;99.90;;;;;;4997119;28;20020;-80
2022/02/01 06:29:52;;;;;;;;;;;0.90;99.90;;;;;;4992231;28;19914;-80
2022/02/01 06:32:18;;;;;;;;;;;0.90;99.90;;;;;;4991870;28;19913;-80
2022/02/01 06:34:44;;;;;;;;;;;0.90;99.90;;;;;;4991381;28;20291;-80
2022/02/01 06:37:09;;;;;;;;;;;0.90;99.90;;;;;;4995008;28;20582;-80
2022/02/01 06:39:37;;;;;;;;;;;1.00;99.90;;;;;;5000623;28;19922;-80
2022/02/01 06:42:03;;;;;;;;;;;1.00;99.90;;;;;;4993758;28;19953;-80
2022/02/01 06:44:29;;;;;;;;;;;1.00;99.90;;;;;;5002896;28;19921;-80
2022/02/01 06:46:54;;;;;;;;;;;0.90;99.90;;;;;;5006788;28;19921;-80
2022/02/01 06:49:20;;;;;;;;;;;1.00;99.90;;;;;;4991551;28;19917;-80
2022/02/01 06:51:46;;;;;;;;;;;1.00;99.90;;;;;;4991300;28;19946;-80
2022/02/01 06:54:11;;;;;;;;;;;1.00;99.90;;;;;;4992749;28;20104;-80
2022/02/01 06:56:37;;;;;;;;;;;1.00;99.90;;;;;;4983464;28;19925;-80
2022/02/01 06:59:04;;;;;;;;;;;1.00;99.90;;;;;;4990473;28;19918;-80
2022/02/01 07:01:30;;;;;;;;;;;1.00;99.90;;;;;;4982062;28;19925;-80
2022/02/01 07:03:56;;;;;;;;;;;1.00;99.90;;;;;;4987292;28;19922;-80
2022/02/01 07:06:22;;;;;;;;;;;1.00;99.90;;;;;;4989411;28;20296;-80
2022/02/01 07:08:49;;;;;;;;;;;1.10;99.90;;;;;;4990464;28;19914;-80
2022/02/01 07:11:18;;;;;;;;;;;1.10;99.90;;;;;;4980007;28;20362;-80
2022/02/01 07:13:45;;;;;;;;;;;1.00;99.90;;;;;;4983711;28;20446;-80
2022/02/01 07:16:11;;;;;;;;;;;1.00;99.90;;;;;;4988540;28;19918;-80
2022/02/01 07:18:37;;;;;;;;;;;1.00;99.90;;;;;;4992198;28;19933;-80
2022/02/01 07:21:02;;;;;;;;;;;1.00;99.90;;;;;;4990592;28;20463;-79
2022/02/01 07:23:28;;;;;;;;;;;1.00;99.90;;;;;;4981394;28;20300;-80
2022/02/01 07:25:55;;;;;;;;;;;1.00;99.90;;;;;;4988896;28;19926;-80
2022/02/01 07:28:21;;;;;;;;;;;1.00;99.90;;;;;;5003617;28;19925;-80
2022/02/01 07:30:47;;;;;;;;;;;1.10;99.90;;;;;;4991217;28;20598;-80
2022/02/01 07:33:13;;;;;;;;;;;1.00;99.90;;;;;;4975439;28;19918;-80
2022/02/01 07:35:39;;;;;;;;;;;1.10;99.90;;;;;;4995647;28;19914;-79
2022/02/01 07:38:05;;;;;;;;;;;1.10;99.90;;;;;;4992896;28;19926;-80
2022/02/01 07:40:31;;;;;;;;;;;1.10;99.90;;;;;;4969793;28;19952;-80
2022/02/01 07:42:57;;;;;;;;;;;1.10;99.90;;;;;;4989290;28;19914;-80
2022/02/01 07:45:27;;;;;;;;;;;1.10;99.90;;;;;;5001380;28;19964;-80
2022/02/01 07:47:54;;;;;;;;;;;1.00;99.90;;;;;;4993828;28;19914;-80
2022/02/01 07:50:20;;;;;;;;;;;1.10;99.90;;;;;;4977180;28;19919;-79
2022/02/01 07:52:46;;;;;;;;;;;1.10;99.90;;;;;;4996270;28;19913;-80
2022/02/01 07:55:12;;;;;;;;;;;1.10;99.90;;;;;;4992259;28;20540;-80
2022/02/01 07:57:38;;;;;;;;;;;1.10;99.90;;;;;;4992643;28;19968;-80
2022/02/01 08:00:04;;;;;;;;;;;1.10;99.90;;;;;;4992145;28;19933;-80
2022/02/01 08:02:31;;;;;;;;;;;1.10;99.90;;;;;;4988613;28;19922;-80
2022/02/01 08:04:57;;;;;;;;;;;1.20;99.90;;;;;;4971942;28;19922;-80
2022/02/01 08:07:23;;;;;;;;;;;1.20;99.90;;;;;;4994716;28;19916;-80
2022/02/01 08:09:53;;;;;;;;;;;1.20;99.90;;;;;;5005437;28;19914;-80
2022/02/01 08:20:17;;;;;;;;;;;1.30;99.90;;;;;;4988784;28;19913;-80
2022/02/01 08:25:11;;;;;;;;;;;1.30;99.90;;;;;;4993699;28;20284;-79
2022/02/01 08:27:38;;;;;;;;;;;1.40;99.90;;;;;;4977335;28;19941;-79
2022/02/01 08:30:08;;;;;;;;;;;1.40;99.90;;;;;;4994201;28;19918;-80
2022/02/01 08:32:33;;;;;;;;;;;1.40;99.90;;;;;;4992171;28;20392;-80
2022/02/01 08:34:59;;;;;;;;;;;1.40;99.90;;;;;;4994800;28;19925;-80
2022/02/01 08:37:25;;;;;;;;;;;1.40;99.90;;;;;;4995450;28;20314;-80
2022/02/01 08:39:51;;;;;;;;;;;1.40;99.90;;;;;;4998757;28;19913;-80
2022/02/01 08:42:17;;;;;;;;;;;1.40;99.90;;;;;;5003258;28;19918;-80
2022/02/01 08:44:44;;;;;;;;;;;1.40;99.90;;;;;;4992369;28;19949;-80
2022/02/01 08:47:11;;;;;;;;;;;1.40;99.90;;;;;;4993805;28;19917;-80
2022/02/01 08:49:36;;;;;;;;;;;1.50;99.90;;;;;;4985067;28;19937;-80
2022/02/01 08:52:05;;;;;;;;;;;1.50;99.90;;;;;;4973277;28;19947;-80
2022/02/01 08:54:33;;;;;;;;;;;1.40;99.90;;;;;;4990830;28;19961;-80
2022/02/01 08:59:42;;;;;;;;;;;1.40;99.90;;;;;;4994745;28;20303;-80
2022/02/01 09:02:08;;;;;;;;;;;1.40;99.90;;;;;;4993625;28;20012;-79
2022/02/01 09:04:34;;;;;;;;;;;1.50;99.90;;;;;;4993736;28;20388;-79
2022/02/01 09:07:01;;;;;;;;;;;1.50;99.90;;;;;;4993427;28;19917;-80
2022/02/01 09:09:27;;;;;;;;;;;1.50;99.90;;;;;;4984538;28;19918;-80
2022/02/01 09:11:52;;;;;;;;;;;1.50;99.90;;;;;;4989964;28;19944;-80
2022/02/01 09:14:19;;;;;;;;;;;1.50;99.90;;;;;;4993203;28;20384;-80
2022/02/01 09:16:45;;;;;;;;;;;1.50;99.90;;;;;;4994926;28;19910;-80
2022/02/01 09:19:11;;;;;;;;;;;1.40;99.90;;;;;;4982599;28;19914;-80
2022/02/01 09:21:37;;;;;;;;;;;1.40;99.90;;;;;;4959277;28;19914;-80
2022/02/01 09:24:03;;;;;;;;;;;1.40;99.90;;;;;;4988270;28;20076;-80
2022/02/01 09:26:29;;;;;;;;;;;1.40;99.90;;;;;;4992762;28;20430;-80
2022/02/01 09:28:55;;;;;;;;;;;1.40;99.90;;;;;;4992826;28;20010;-80
2022/02/01 09:31:21;;;;;;;;;;;1.40;99.90;;;;;;4990447;28;19947;-80
2022/02/01 09:33:47;;;;;;;;;;;1.50;99.90;;;;;;4993285;28;19918;-80
2022/02/01 09:36:13;;;;;;;;;;;1.50;99.90;;;;;;4993012;28;20008;-80
2022/02/01 09:38:38;;;;;;;;;;;1.50;99.90;;;;;;4993697;28;19956;-80
2022/02/01 09:41:04;;;;;;;;;;;1.50;99.90;;;;;;4974029;28;19918;-80
2022/02/01 09:43:30;;;;;;;;;;;1.50;99.90;;;;;;4985320;28;19969;-80
2022/02/01 09:45:57;;;;;;;;;;;1.60;99.90;;;;;;4993595;28;19917;-80
2022/02/01 09:48:23;;;;;;;;;;;1.70;99.90;;;;;;4987024;28;19921;-80
2022/02/01 09:50:49;;;;;;;;;;;1.70;99.90;;;;;;4995021;28;19913;-80
2022/02/01 09:53:14;;;;;;;;;;;1.80;99.90;;;;;;4995749;28;20404;-80
2022/02/01 09:55:40;;;;;;;;;;;1.80;99.90;;;;;;4995196;28;20339;-80
2022/02/01 09:58:06;;;;;;;;;;;1.80;99.90;;;;;;4989486;28;19921;-80
2022/02/01 10:00:34;;;;;;;;;;;1.80;99.90;;;;;;4992074;28;19925;-80
2022/02/01 10:03:00;;;;;;;;;;;1.90;99.90;;;;;;4978554;28;19937;-80
2022/02/01 10:05:25;;;;;;;;;;;1.90;99.90;;;;;;4987127;28;19918;-80
2022/02/01 10:07:53;;;;;;;;;;;1.90;99.90;;;;;;4977945;28;19918;-79
2022/02/01 10:10:19;;;;;;;;;;;1.90;99.90;;;;;;4982784;28;19914;-79
2022/02/01 10:12:55;;;;;;;;;;;1.90;99.90;;;;;;4987991;28;20128;-79
2022/02/01 10:15:25;;;;;;;;;;;2.00;99.90;;;;;;4988401;28;19940;-80
2022/02/01 10:17:57;;;;;;;;;;;2.00;99.90;;;;;;4972215;28;19914;-80
2022/02/01 10:20:41;;;;;;;;;;;2.00;99.90;;;;;;4956683;28;19926;-79
2022/02/01 10:23:15;;;;;;;;;;;2.00;99.90;;;;;;4987151;28;19925;-80
2022/02/01 10:25:41;;;;;;;;;;;2.00;99.90;;;;;;4984949;28;19984;-79
2022/02/01 10:28:11;;;;;;;;;;;2.00;99.90;;;;;;4980699;28;20384;-80
2022/02/01 10:30:41;;;;;;;;;;;2.00;99.90;;;;;;4984957;28;20002;-80
2022/02/01 10:35:59;;;;;;;;;;;1.90;99.90;;;;;;4942080;28;19918;-80
2022/02/01 10:38:32;;;;;;;;;;;1.80;99.90;;;;;;4987513;28;20020;-80
2022/02/01 10:40:58;;;;;;;;;;;1.80;99.90;;;;;;4987905;28;19945;-80
2022/02/01 10:43:25;;;;;;;;;;;1.80;99.90;;;;;;4984087;28;19922;-80
2022/02/01 10:45:52;;;;;;;;;;;1.80;99.90;;;;;;4993522;28;19914;-80
2022/02/01 10:48:20;;;;;;;;;;;1.80;99.90;;;;;;4979446;28;19924;-80
2022/02/01 10:50:50;;;;;;;;;;;1.80;99.90;;;;;;4960786;28;19917;-79
2022/02/01 10:53:19;;;;;;;;;;;1.80;99.90;;;;;;4995895;28;19918;-80
2022/02/01 10:55:45;;;;;;;;;;;1.80;99.90;;;;;;4988542;28;19922;-80
2022/02/01 10:58:11;;;;;;;;;;;1.80;99.90;;;;;;4988887;28;19921;-80
2022/02/01 11:00:37;;;;;;;;;;;1.80;99.90;;;;;;4984376;28;19913;-80
2022/02/01 11:03:03;;;;;;;;;;;1.70;99.90;;;;;;4984395;28;19924;-80
2022/02/01 11:05:30;;;;;;;;;;;1.70;99.90;;;;;;4982927;28;20029;-80
2022/02/01 11:07:55;;;;;;;;;;;1.70;99.90;;;;;;4987910;28;19924;-80
2022/02/01 11:10:21;;;;;;;;;;;1.70;99.90;;;;;;4971418;28;20008;-80
2022/02/01 11:12:47;;;;;;;;;;;1.70;99.90;;;;;;4989526;28;20003;-80
2022/02/01 11:15:20;;;;;;;;;;;1.70;99.90;;;;;;4988345;28;19914;-79
2022/02/01 11:17:47;;;;;;;;;;;1.70;99.90;;;;;;4990989;28;19961;-79
2022/02/01 11:20:24;;;;;;;;;;;1.70;99.90;;;;;;4987419;28;20387;-80
2022/02/01 11:23:00;;;;;;;;;;;1.70;99.90;;;;;;4982197;28;19922;-80
2022/02/01 11:25:29;;;;;;;;;;;1.70;99.90;;;;;;4979133;28;19940;-80
2022/02/01 11:30:38;;;;;;;;;;;1.70;99.90;;;;;;4991560;28;19924;-79
2022/02/01 11:33:04;;;;;;;;;;;1.70;99.90;;;;;;4993899;28;19960;-80
2022/02/01 11:35:30;;;;;;;;;;;1.80;99.90;;;;;;4976088;28;19941;-80
2022/02/01 11:38:02;;;;;;;;;;;1.80;99.90;;;;;;4980091;28;19919;-79
2022/02/01 11:40:35;;;;;;;;;;;1.90;99.90;;;;;;4970305;28;19914;-79
2022/02/01 11:43:05;;;;;;;;;;;2.00;99.90;;;;;;4986334;28;20299;-79
2022/02/01 11:45:35;;;;;;;;;;;2.00;99.90;;;;;;5000803;28;19913;-79
2022/02/01 11:48:03;;;;;;;;;;;2.10;99.90;;;;;;4983933;28;19928;-80
2022/02/01 11:50:29;;;;;;;;;;;2.20;99.90;;;;;;4987054;28;19972;-80
2022/02/01 11:52:59;;;;;;;;;;;2.20;99.90;;;;;;4987319;28;20468;-79
2022/02/01 11:55:29;;;;;;;;;;;2.20;99.90;;;;;;4984734;28;19921;-80
2022/02/01 11:57:59;;;;;;;;;;;2.30;99.90;;;;;;4980177;28;20004;-80
2022/02/01 12:00:27;;;;;;;;;;;2.30;99.90;;;;;;4997183;28;19977;-80
2022/02/01 12:03:00;;;;;;;;;;;2.30;99.90;;;;;;5006303;28;19914;-80
2022/02/01 12:05:31;;;;;;;;;;;2.30;99.90;;;;;;4972083;28;20024;-80
2022/02/01 12:08:07;;;;;;;;;;;2.40;99.90;;;;;;4991631;28;19914;-79
2022/02/01 12:10:38;;;;;;;;;;;2.40;99.90;;;;;;4994319;28;19925;-80
2022/02/01 12:13:03;;;;;;;;;;;2.50;99.90;;;;;;4984922;28;19914;-79
2022/02/01 12:15:30;;;;;;;;;;;2.50;99.90;;;;;;4991725;28;20423;-80
2022/02/01 12:18:05;;;;;;;;;;;2.50;99.90;;;;;;4991500;28;19918;-80
2022/02/01 12:20:33;;;;;;;;;;;2.40;99.90;;;;;;4975307;28;20008;-80
2022/02/01 12:22:59;;;;;;;;;;;2.40;99.90;;;;;;4988621;28;19930;-80
2022/02/01 12:25:26;;;;;;;;;;;2.50;99.90;;;;;;4990745;28;19925;-80
2022/02/01 12:27:51;;;;;;;;;;;2.40;99.90;;;;;;5001794;28;19920;-80
2022/02/01 12:30:17;;;;;;;;;;;2.40;99.90;;;;;;4999186;28;19914;-80
2022/02/01 12:32:49;;;;;;;;;;;2.30;99.90;;;;;;4990330;28;20334;-80
2022/02/01 12:35:15;;;;;;;;;;;2.30;99.90;;;;;;4991226;28;19914;-80
2022/02/01 12:37:41;;;;;;;;;;;2.30;99.90;;;;;;4998543;28;19964;-80
2022/02/01 12:40:11;;;;;;;;;;;2.30;99.90;;;;;;4993736;28;19918;-80
2022/02/01 12:42:47;;;;;;;;;;;2.30;99.90;;;;;;5003364;28;19921;-81
2022/02/01 12:47:59;;;;;;;;;;;2.30;99.90;;;;;;4991646;28;20280;-81
2022/02/01 12:50:25;;;;;;;;;;;2.30;99.90;;;;;;4987022;28;19921;-80
2022/02/01 12:52:55;;;;;;;;;;;2.30;99.90;;;;;;4998226;28;19922;-81
2022/02/01 12:55:21;;;;;;;;;;;2.20;99.90;;;;;;4998022;28;19961;-81
2022/02/01 12:57:46;;;;;;;;;;;2.20;99.90;;;;;;5011744;28;19929;-81
2022/02/01 13:00:16;;;;;;;;;;;2.20;99.90;;;;;;4981807;28;20299;-80
2022/02/01 13:02:42;;;;;;;;;;;2.30;99.90;;;;;;4990981;28;19918;-80
2022/02/01 13:05:09;;;;;;;;;;;2.20;99.90;;;;;;4994713;28;19914;-80
2022/02/01 13:13:20;;;;;;;;;;;2.20;99.90;;;;;;4997878;28;19924;-81
2022/02/01 13:15:53;;;;;;;;;;;2.10;99.90;;;;;;5005665;28;20394;-80
2022/02/01 13:20:54;;;;;;;;;;;2.10;99.90;;;;;;4997179;28;19929;-80
2022/02/01 13:23:20;;;;;;;;;;;2.10;99.90;;;;;;4971005;28;20009;-81
2022/02/01 13:25:46;;;;;;;;;;;2.20;99.90;;;;;;4964981;28;20032;-79
2022/02/01 13:28:13;;;;;;;;;;;2.20;99.90;;;;;;4968737;28;19918;-80
2022/02/01 13:30:42;;;;;;;;;;;2.20;99.90;;;;;;4994813;28;19917;-80
2022/02/01 13:33:10;;;;;;;;;;;2.20;99.90;;;;;;4974509;28;19918;-80
2022/02/01 13:36:03;;;;;;;;;;;2.20;99.90;;;;;;4975825;28;19922;-78
2022/02/01 13:38:29;;;;;;;;;;;2.20;99.90;;;;;;4994787;28;19949;-79
2022/02/01 13:40:54;;;;;;;;;;;2.20;99.90;;;;;;4965548;28;19972;-79
2022/02/01 13:43:21;;;;;;;;;;;2.10;99.90;;;;;;4987540;28;19929;-80
2022/02/01 13:45:48;;;;;;;;;;;2.10;99.90;;;;;;5005078;28;19925;-80
2022/02/01 13:48:21;;;;;;;;;;;2.10;99.90;;;;;;5001038;28;19921;-80
2022/02/01 13:50:47;;;;;;;;;;;2.10;99.90;;;;;;4978417;28;19920;-79
2022/02/01 13:53:13;;;;;;;;;;;2.10;99.90;;;;;;4982630;28;19914;-80
2022/02/01 13:55:40;;;;;;;;;;;2.10;99.90;;;;;;5000683;28;20337;-79
2022/02/01 13:58:10;;;;;;;;;;;2.00;99.90;;;;;;4983525;28;19929;-80
2022/02/01 14:00:39;;;;;;;;;;;2.00;99.90;;;;;;4974851;28;19925;-80
2022/02/01 14:03:14;;;;;;;;;;;2.00;99.90;;;;;;4969605;28;19980;-79
2022/02/01 14:05:41;;;;;;;;;;;2.00;99.90;;;;;;4957041;28;19917;-80
2022/02/01 14:08:26;;;;;;;;;;;1.90;99.90;;;;;;4989037;28;20398;-79
2022/02/01 14:14:01;;;;;;;;;;;1.80;99.90;;;;;;4975434;28;19922;-79
2022/02/01 14:34:47;;;;;;;;;;;1.50;99.90;;;;;;4996770;28;19914;-79
2022/02/01 14:37:17;;;;;;;;;;;1.50;99.90;;;;;;4991501;28;19917;-79
2022/02/01 14:45:11;;;;;;;;;;;1.50;99.90;;;;;;4989600;28;19968;-79
2022/02/01 14:47:37;;;;;;;;;;;1.40;99.90;;;;;;4990397;28;19918;-79
2022/02/01 14:50:03;;;;;;;;;;;1.40;99.90;;;;;;4974933;28;20392;-79
2022/02/01 14:52:29;;;;;;;;;;;1.40;99.90;;;;;;4975885;28;19997;-80
2022/02/01 14:54:59;;;;;;;;;;;1.40;99.90;;;;;;4992792;28;19922;-80
2022/02/01 15:13:16;;;;;;;;;;;1.20;99.90;;;;;;4975178;28;19918;-79
2022/02/01 15:15:41;;;;;;;;;;;1.20;99.90;;;;;;4988386;28;19969;-80
2022/02/01 15:18:07;;;;;;;;;;;1.20;99.90;;;;;;4971496;28;20419;-79
2022/02/01 15:20:35;;;;;;;;;;;1.20;99.90;;;;;;4988481;28;19918;-79
2022/02/01 15:23:01;;;;;;;;;;;1.20;99.90;;;;;;4963051;28;19925;-78
2022/02/01 15:25:27;;;;;;;;;;;1.20;99.90;;;;;;4959465;28;19981;-79
2022/02/01 15:27:52;;;;;;;;;;;1.20;99.90;;;;;;4982889;28;19914;-79
2022/02/01 15:30:18;;;;;;;;;;;1.10;99.90;;;;;;4963432;28;19961;-79
2022/02/01 15:32:48;;;;;;;;;;;1.20;99.90;;;;;;4983875;28;20576;-79
2022/02/01 15:35:15;;;;;;;;;;;1.10;99.90;;;;;;4953918;28;19976;-80
2022/02/01 15:37:43;;;;;;;;;;;1.10;99.90;;;;;;4975137;28;19953;-78
2022/02/01 15:59:21;;;;;;;;;;;1.20;99.90;;;;;;4987587;28;19918;-79
2022/02/01 16:01:57;;;;;;;;;;;1.10;99.90;;;;;;4986674;28;19999;-80
2022/02/01 16:04:23;;;;;;;;;;;1.10;99.90;;;;;;4991657;28;20635;-80
2022/02/01 16:06:59;;;;;;;;;;;1.10;99.90;;;;;;4991193;28;19918;-80
2022/02/01 16:09:39;;;;;;;;;;;1.10;99.90;;;;;;4978688;28;19952;-78
2022/02/01 16:12:06;;;;;;;;;;;1.10;99.90;;;;;;4984824;28;19981;-79
2022/02/01 16:14:32;;;;;;;;;;;1.20;99.90;;;;;;4975767;28;19921;-79
2022/02/01 16:16:57;;;;;;;;;;;1.20;99.90;;;;;;4989788;28;19965;-79
2022/02/01 16:19:23;;;;;;;;;;;1.20;99.90;;;;;;4997665;28;19914;-79
2022/02/01 16:21:49;;;;;;;;;;;1.10;99.90;;;;;;4974483;28;20012;-79
2022/02/01 16:24:14;;;;;;;;;;;1.10;99.90;;;;;;4987784;28;19957;-81
2022/02/01 16:26:42;;;;;;;;;;;1.10;99.90;;;;;;4989926;28;20012;-79
2022/02/01 16:29:08;;;;;;;;;;;1.10;99.90;;;;;;4979278;28;19918;-79
2022/02/01 16:31:34;;;;;;;;;;;1.10;99.90;;;;;;4989356;28;19914;-79
2022/02/01 16:34:01;;;;;;;;;;;1.10;99.90;;;;;;4992615;28;20017;-78
2022/02/01 16:36:27;;;;;;;;;;;1.10;99.90;;;;;;4989948;28;19936;-78
2022/02/01 16:38:53;;;;;;;;;;;1.10;99.90;;;;;;4991388;28;20012;-79
2022/02/01 16:41:19;;;;;;;;;;;1.20;99.90;;;;;;4989958;28;19956;-78
2022/02/01 16:43:45;;;;;;;;;;;1.10;99.90;;;;;;4991378;28;19922;-79
2022/02/01 16:46:12;;;;;;;;;;;1.20;99.90;;;;;;4988664;28;19921;-80
2022/02/01 16:48:37;;;;;;;;;;;1.10;99.90;;;;;;4992751;28;19921;-80
2022/02/01 16:51:04;;;;;;;;;;;1.10;99.90;;;;;;4977596;28;19924;-79
2022/02/01 16:53:53;;;;;;;;;;;1.10;99.90;;;;;;4993399;28;20292;-79
2022/02/01 16:56:27;;;;;;;;;;;1.20;99.90;;;;;;4975845;28;19929;-79
2022/02/01 16:58:55;;;;;;;;;;;1.20;99.90;;;;;;4991933;28;19929;-80
2022/02/01 17:01:21;;;;;;;;;;;1.10;99.90;;;;;;4994303;28;20357;-79
2022/02/01 17:03:47;;;;;;;;;;;1.10;99.90;;;;;;4994562;28;19971;-79
2022/02/01 17:06:12;;;;;;;;;;;1.10;99.90;;;;;;4991110;28;19914;-79
2022/02/01 17:08:39;;;;;;;;;;;1.20;99.90;;;;;;4988187;28;19922;-79
2022/02/01 17:11:19;;;;;;;;;;;1.20;99.90;;;;;;4975350;28;20001;-79
2022/02/01 17:14:00;;;;;;;;;;;1.20;99.90;;;;;;4987847;28;19914;-80
2022/02/01 17:19:15;;;;;;;;;;;1.20;99.90;;;;;;4994056;28;19969;-79
2022/02/01 17:21:41;;;;;;;;;;;1.20;99.90;;;;;;4971293;28;19914;-80